createdAt,value
2019-05-11T00:01:55.043Z,21.83
2019-05-11T00:04:25.616Z,22.73
2019-05-11T00:06:56.185Z,19.73
2019-05-11T00:09:26.410Z,19.30
2019-05-11T00:11:57.339Z,21.53
2019-05-11T00:14:27.889Z,23.53
2019-05-11T00:16:58.476Z,20.33
2019-05-11T00:19:28.668Z,21.87
2019-05-11T00:21:58.811Z,19.40
2019-05-11T00:24:29.896Z,20.93
2019-05-11T00:27:01.371Z,21.90
2019-05-11T00:29:32.884Z,23.50
2019-05-11T00:32:03.522Z,21.70
2019-05-11T00:34:34.062Z,23.57
2019-05-11T00:37:04.178Z,24.37
2019-05-11T00:39:34.487Z,20.63
2019-05-11T00:42:04.662Z,25.00
2019-05-11T00:44:34.929Z,20.90
2019-05-11T00:47:05.114Z,21.53
2019-05-11T00:49:35.324Z,24.73
2019-05-11T00:52:05.519Z,21.03
2019-05-11T00:54:36.059Z,24.00
2019-05-11T00:57:06.573Z,21.30
2019-05-11T00:59:36.791Z,20.27
2019-05-11T01:02:07.014Z,21.37
2019-05-11T01:04:37.784Z,21.73
2019-05-11T01:07:08.078Z,22.17
2019-05-11T01:09:38.320Z,22.67
2019-05-11T01:12:08.547Z,23.20
2019-05-11T01:14:39.156Z,22.50
2019-05-11T01:17:09.340Z,22.43
2019-05-11T01:19:39.932Z,21.57
2019-05-11T01:22:10.117Z,24.70
2019-05-11T01:24:40.658Z,22.87
2019-05-11T01:27:10.979Z,23.63
2019-05-11T01:29:41.168Z,21.73
2019-05-11T01:32:11.368Z,26.10
2019-05-11T01:34:41.470Z,23.43
2019-05-11T01:37:12.080Z,22.27
2019-05-11T01:39:42.272Z,23.50
2019-05-11T01:42:12.476Z,25.80
2019-05-11T01:44:42.667Z,27.63
2019-05-11T01:47:13.254Z,24.13
2019-05-11T01:49:43.424Z,26.40
2019-05-11T01:52:13.646Z,23.73
2019-05-11T01:54:43.774Z,25.87
2019-05-11T01:57:14.314Z,24.37
2019-05-11T01:59:45.214Z,25.37
2019-05-11T02:02:15.707Z,25.73
2019-05-11T02:04:47.953Z,30.90
2019-05-11T02:07:18.612Z,26.70
2019-05-11T02:09:49.202Z,26.87
2019-05-11T02:12:19.645Z,29.93
2019-05-11T02:14:50.242Z,31.43
2019-05-11T02:17:20.768Z,28.93
2019-05-11T02:19:50.976Z,28.43
2019-05-11T02:22:21.529Z,29.53
2019-05-11T02:24:51.758Z,31.43
2019-05-11T02:27:21.969Z,29.73
2019-05-11T02:29:52.256Z,30.20
2019-05-11T02:32:22.491Z,30.13
2019-05-11T02:34:53.861Z,31.83
2019-05-11T02:37:24.337Z,32.13
2019-05-11T02:39:55.627Z,30.10
2019-05-11T02:42:26.769Z,32.27
2019-05-11T02:44:57.065Z,35.33
2019-05-11T02:47:27.248Z,34.13
2019-05-11T02:49:57.559Z,34.93
2019-05-11T02:52:30.238Z,35.33
2019-05-11T02:55:02.011Z,32.73
2019-05-11T02:57:32.537Z,32.00
2019-05-11T03:00:03.158Z,36.23
2019-05-11T03:02:34.031Z,34.80
2019-05-11T03:05:05.118Z,36.40
2019-05-11T03:07:36.076Z,35.07
2019-05-11T03:10:07.020Z,38.73
2019-05-11T03:12:37.278Z,33.73
2019-05-11T03:15:07.789Z,40.60
2019-05-11T03:17:38.315Z,38.43
2019-05-11T03:20:08.578Z,37.53
2019-05-11T03:22:38.812Z,39.40
2019-05-11T03:25:09.375Z,38.77
2019-05-11T03:27:40.222Z,39.43
2019-05-11T03:30:10.589Z,42.90
2019-05-11T03:32:40.821Z,41.80
2019-05-11T03:35:11.181Z,43.73
2019-05-11T03:37:41.439Z,43.43
2019-05-11T03:40:12.609Z,45.10
2019-05-11T03:42:42.783Z,45.00
2019-05-11T03:45:13.436Z,44.63
2019-05-11T03:47:43.644Z,45.20
2019-05-11T03:50:14.796Z,41.80
2019-05-11T03:52:45.320Z,47.83
2019-05-11T03:55:16.249Z,43.63
2019-05-11T03:57:46.485Z,44.27
2019-05-11T04:00:17.126Z,44.97
2019-05-11T04:02:47.374Z,45.60
2019-05-11T04:05:17.896Z,44.57
2019-05-11T04:07:48.066Z,43.77
2019-05-11T04:10:18.287Z,47.00
2019-05-11T04:12:48.489Z,50.50
2019-05-11T04:15:19.577Z,48.67
2019-05-11T04:17:49.831Z,48.67
2019-05-11T04:20:20.441Z,45.50
2019-05-11T04:22:51.721Z,43.80
2019-05-11T04:25:21.835Z,44.37
2019-05-11T04:27:52.023Z,43.13
2019-05-11T04:30:22.620Z,41.73
2019-05-11T04:32:53.161Z,46.47
2019-05-11T04:35:23.749Z,42.53
2019-05-11T04:37:54.002Z,41.87
2019-05-11T04:40:25.274Z,43.03
2019-05-11T04:42:56.308Z,44.50
2019-05-11T04:45:26.825Z,47.10
2019-05-11T04:47:57.003Z,43.97
2019-05-11T04:50:27.229Z,45.63
2019-05-11T04:52:57.490Z,46.57
2019-05-11T04:55:27.749Z,47.63
2019-05-11T04:57:57.965Z,45.53
2019-05-11T05:00:28.185Z,48.17
2019-05-11T05:02:58.583Z,45.17
2019-05-11T05:05:28.742Z,45.70
2019-05-11T05:08:09.050Z,46.37
2019-05-11T05:10:31.533Z,45.30
2019-05-11T05:13:10.183Z,46.03
2019-05-11T05:15:34.741Z,39.53
2019-05-11T05:18:04.927Z,42.17
2019-05-11T05:20:35.735Z,41.47
2019-05-11T05:23:06.440Z,38.93
2019-05-11T05:25:37.078Z,37.77
2019-05-11T05:28:07.330Z,34.53
2019-05-11T05:30:37.563Z,41.07
2019-05-11T05:33:07.651Z,38.10
2019-05-11T05:35:38.247Z,34.07
2019-05-11T05:38:08.445Z,37.23
2019-05-11T05:40:38.739Z,35.13
2019-05-11T05:43:09.244Z,33.20
2019-05-11T05:45:39.872Z,34.20
2019-05-11T05:48:10.189Z,34.77
2019-05-11T05:50:41.526Z,37.97
2019-05-11T05:53:11.985Z,40.80
2019-05-11T05:55:42.926Z,33.60
2019-05-11T05:58:13.595Z,31.20
2019-05-11T06:00:44.593Z,35.20
2019-05-11T06:03:14.717Z,28.87
2019-05-11T06:05:44.983Z,39.13
2019-05-11T06:08:15.288Z,32.00
2019-05-11T06:10:45.669Z,31.47
2019-05-11T06:13:15.856Z,33.73
2019-05-11T06:15:46.142Z,36.37
2019-05-11T06:18:16.321Z,40.37
2019-05-11T06:20:46.764Z,35.60
2019-05-11T06:23:17.512Z,35.33
2019-05-11T06:25:47.811Z,37.13
2019-05-11T06:28:17.984Z,37.67
2019-05-11T06:30:48.280Z,39.10
2019-05-11T06:33:18.732Z,37.20
2019-05-11T06:35:49.342Z,36.70
2019-05-11T06:38:19.856Z,35.07
2019-05-11T06:40:50.094Z,37.40
2019-05-11T06:43:20.569Z,31.63
2019-05-11T06:45:50.744Z,34.63
2019-05-11T06:48:21.290Z,34.47
2019-05-11T06:50:51.550Z,37.83
2019-05-11T06:53:21.732Z,33.37
2019-05-11T06:55:51.961Z,38.07
2019-05-11T06:58:22.257Z,31.37
2019-05-11T07:00:52.674Z,30.73
2019-05-11T07:03:22.911Z,33.93
2019-05-11T07:05:53.040Z,32.93
2019-05-11T07:08:23.297Z,32.07
2019-05-11T07:10:53.556Z,33.43
2019-05-11T07:13:23.946Z,36.43
2019-05-11T07:15:54.247Z,36.20
2019-05-11T07:18:25.697Z,30.40
2019-05-11T07:20:55.920Z,31.10
2019-05-11T07:23:26.493Z,36.33
2019-05-11T07:26:00.056Z,31.67
2019-05-11T07:28:28.740Z,32.83
2019-05-11T07:30:58.941Z,33.53
2019-05-11T07:33:29.245Z,32.57
2019-05-11T07:36:01.355Z,29.87
2019-05-11T07:38:32.002Z,30.47
2019-05-11T07:41:02.669Z,32.43
2019-05-11T07:43:33.140Z,30.20
2019-05-11T07:46:03.338Z,33.27
2019-05-11T07:48:33.598Z,32.30
2019-05-11T07:51:03.899Z,33.70
2019-05-11T07:53:34.101Z,29.93
2019-05-11T07:56:04.764Z,34.63
2019-05-11T07:58:35.043Z,32.27
2019-05-11T08:01:05.304Z,34.23
2019-05-11T08:03:35.525Z,30.37
2019-05-11T08:06:05.755Z,29.60
2019-05-11T08:08:38.253Z,31.30
2019-05-11T08:11:08.276Z,28.63
2019-05-11T08:13:38.974Z,28.07
2019-05-11T08:16:10.486Z,26.80
2019-05-11T08:18:40.778Z,23.47
2019-05-11T08:21:11.456Z,23.67
2019-05-11T08:23:41.645Z,25.80
2019-05-11T08:26:11.767Z,23.53
2019-05-11T08:28:42.399Z,26.67
2019-05-11T08:31:12.641Z,22.27
2019-05-11T08:33:42.913Z,19.90
2019-05-11T08:36:13.297Z,22.83
2019-05-11T08:38:43.624Z,23.23
2019-05-11T08:41:13.906Z,21.60
2019-05-11T08:43:44.147Z,22.17
2019-05-11T08:46:14.560Z,21.13
2019-05-11T08:48:44.899Z,19.37
2019-05-11T08:51:15.493Z,20.10
2019-05-11T08:53:47.982Z,23.33
2019-05-11T08:56:18.917Z,24.30
2019-05-11T08:58:49.389Z,21.27
2019-05-11T09:01:19.739Z,22.27
2019-05-11T09:03:51.338Z,21.33
2019-05-11T09:06:21.738Z,19.63
2019-05-11T09:08:52.055Z,20.50
2019-05-11T09:11:22.655Z,17.40
2019-05-11T09:13:52.919Z,18.73
2019-05-11T09:16:23.313Z,17.17
2019-05-11T09:18:53.543Z,15.73
2019-05-11T09:21:24.235Z,16.43
2019-05-11T09:23:54.983Z,21.27
2019-05-11T09:26:25.182Z,18.13
2019-05-11T09:28:55.524Z,14.03
2019-05-11T09:31:27.770Z,16.97
2019-05-11T09:33:58.773Z,14.23
2019-05-11T09:36:30.115Z,15.97
2019-05-11T09:39:00.389Z,17.50
2019-05-11T09:41:30.739Z,16.47
2019-05-11T09:44:01.065Z,17.23
2019-05-11T09:46:31.297Z,16.20
2019-05-11T09:49:01.781Z,18.10
2019-05-11T09:51:32.185Z,15.20
2019-05-11T09:54:02.748Z,16.93
2019-05-11T09:56:33.483Z,16.30
2019-05-11T09:59:03.760Z,15.80
2019-05-11T10:01:37.674Z,15.50
2019-05-11T10:04:08.971Z,15.77
2019-05-11T10:06:40.348Z,14.27
2019-05-11T10:09:11.150Z,14.50
2019-05-11T10:11:41.797Z,17.07
2019-05-11T10:14:12.027Z,13.27
2019-05-11T10:16:42.682Z,13.40
2019-05-11T10:19:13.178Z,12.57
2019-05-11T10:21:43.422Z,15.07
2019-05-11T10:24:13.621Z,13.57
2019-05-11T10:26:43.842Z,12.93
2019-05-11T10:29:14.372Z,11.67
2019-05-11T10:31:44.904Z,9.17
2019-05-11T10:34:15.099Z,13.93
2019-05-11T10:36:45.520Z,11.63
2019-05-11T10:39:15.772Z,15.60
2019-05-11T10:41:47.970Z,13.80
2019-05-11T10:44:18.743Z,17.13
2019-05-11T10:46:50.513Z,10.33
2019-05-11T10:49:20.697Z,9.90
2019-05-11T10:51:51.992Z,9.43
2019-05-11T10:54:22.374Z,13.83
2019-05-11T10:56:52.796Z,12.23
2019-05-11T10:59:23.114Z,11.33
2019-05-11T11:01:53.825Z,14.57
2019-05-11T11:04:24.101Z,11.17
2019-05-11T11:06:54.576Z,15.17
2019-05-11T11:09:25.229Z,13.90
2019-05-11T11:11:57.746Z,12.90
2019-05-11T11:14:28.691Z,13.60
2019-05-11T11:16:59.385Z,13.00
2019-05-11T11:19:29.702Z,12.70
2019-05-11T11:22:28.552Z,12.83
2019-05-11T11:24:32.412Z,13.93
2019-05-11T11:27:02.851Z,10.17
2019-05-11T11:29:33.172Z,11.13
2019-05-11T11:32:03.535Z,10.90
2019-05-11T11:34:33.814Z,10.20
2019-05-11T11:37:04.222Z,9.23
2019-05-11T11:39:34.518Z,6.93
2019-05-11T11:42:08.400Z,8.73
2019-05-11T11:44:38.516Z,8.10
2019-05-11T11:47:08.978Z,8.43
2019-05-11T11:49:40.306Z,6.30
2019-05-11T11:52:10.614Z,6.67
2019-05-11T11:54:41.270Z,8.70
2019-05-11T11:57:11.866Z,8.33
2019-05-11T11:59:42.199Z,7.97
2019-05-11T12:02:13.551Z,8.30
2019-05-11T12:04:43.734Z,8.33
2019-05-11T12:07:14.616Z,8.20
2019-05-11T12:09:45.208Z,6.17
2019-05-11T12:12:16.012Z,7.60
2019-05-11T12:14:47.936Z,7.47
2019-05-11T12:17:18.499Z,5.87
2019-05-11T12:19:48.671Z,6.57
2019-05-11T12:22:19.458Z,12.13
2019-05-11T12:24:50.245Z,8.27
2019-05-11T12:27:20.465Z,6.97
2019-05-11T12:29:50.683Z,7.70
2019-05-11T12:32:27.666Z,5.77
2019-05-11T12:34:58.745Z,8.13
2019-05-11T12:37:29.222Z,5.67
2019-05-11T12:39:59.683Z,7.73
2019-05-11T12:42:30.361Z,8.73
2019-05-11T12:45:00.859Z,9.30
2019-05-11T12:47:31.608Z,8.77
2019-05-11T12:50:02.284Z,10.33
2019-05-11T12:52:32.706Z,7.67
2019-05-11T12:55:03.007Z,7.97
2019-05-11T12:57:33.359Z,11.40
2019-05-11T13:00:04.294Z,7.10
2019-05-11T13:02:34.596Z,10.00
2019-05-11T13:05:05.246Z,12.77
2019-05-11T13:07:35.998Z,10.37
2019-05-11T13:10:09.361Z,9.53
2019-05-11T13:12:39.879Z,12.23
2019-05-11T13:15:12.647Z,9.90
2019-05-11T13:17:43.485Z,9.53
2019-05-11T13:20:14.997Z,9.03
2019-05-11T13:22:48.664Z,11.20
2019-05-11T13:25:18.410Z,9.63
2019-05-11T13:27:49.439Z,6.87
2019-05-11T13:30:19.996Z,8.17
2019-05-11T13:32:50.419Z,7.67
2019-05-11T13:35:20.768Z,9.57
2019-05-11T13:37:51.260Z,12.63
2019-05-11T13:40:21.897Z,9.63
2019-05-11T13:42:52.615Z,9.47
2019-05-11T13:45:22.865Z,6.33
2019-05-11T13:47:56.012Z,7.27
2019-05-11T13:50:25.171Z,6.97
2019-05-11T13:52:55.490Z,9.67
2019-05-11T13:55:28.248Z,7.67
2019-05-11T13:57:58.567Z,6.97
2019-05-11T14:00:29.062Z,6.90
2019-05-11T14:03:01.850Z,8.27
2019-05-11T14:05:32.411Z,7.97
2019-05-11T14:08:03.335Z,6.27
2019-05-11T14:10:33.577Z,5.87
2019-05-11T14:13:04.510Z,9.90
2019-05-11T14:15:34.987Z,7.50
2019-05-11T14:18:08.686Z,6.20
2019-05-11T14:20:38.584Z,5.43
2019-05-11T14:23:09.025Z,13.13
2019-05-11T14:25:39.480Z,6.77
2019-05-11T14:28:09.856Z,6.00
2019-05-11T14:30:40.180Z,9.57
2019-05-11T14:33:11.655Z,4.43
2019-05-11T14:35:42.257Z,8.93
2019-05-11T14:38:13.064Z,7.53
2019-05-11T14:40:43.638Z,5.87
2019-05-11T14:43:14.782Z,6.70
2019-05-11T14:45:44.936Z,6.47
2019-05-11T14:48:25.891Z,6.67
2019-05-11T14:50:48.953Z,3.90
2019-05-11T14:53:19.767Z,5.03
2019-05-11T14:55:50.232Z,5.57
2019-05-11T14:58:20.879Z,6.23
2019-05-11T15:00:51.305Z,4.07
2019-05-11T15:03:21.537Z,6.97
2019-05-11T15:05:52.515Z,5.07
2019-05-11T15:08:23.007Z,6.80
2019-05-11T15:10:53.490Z,5.87
2019-05-11T15:13:23.796Z,3.87
2019-05-11T15:15:54.380Z,13.60
2019-05-11T15:18:38.001Z,4.73
2019-05-11T15:20:58.081Z,3.13
2019-05-11T15:23:28.695Z,5.00
2019-05-11T15:25:59.255Z,4.60
2019-05-11T15:28:30.863Z,3.67
2019-05-11T15:31:01.588Z,3.90
2019-05-11T15:33:32.099Z,5.67
2019-05-11T15:36:03.411Z,5.53
2019-05-11T15:38:33.693Z,4.03
2019-05-11T15:41:04.129Z,5.57
2019-05-11T15:43:34.468Z,4.03
2019-05-11T15:46:05.024Z,4.63
2019-05-11T15:48:52.858Z,8.33
2019-05-11T15:51:08.174Z,6.50
2019-05-11T15:53:38.950Z,4.73
2019-05-11T15:56:09.340Z,3.27
2019-05-11T15:58:39.760Z,4.77
2019-05-11T16:01:10.457Z,5.67
2019-05-11T16:03:40.823Z,4.23
2019-05-11T16:06:11.466Z,3.93
2019-05-11T16:08:41.712Z,4.03
2019-05-11T16:11:11.952Z,5.57
2019-05-11T16:13:42.245Z,6.07
2019-05-11T16:16:12.466Z,5.90
2019-05-11T16:18:42.872Z,3.70
2019-05-11T16:21:13.217Z,3.63
2019-05-11T16:23:44.008Z,4.87
2019-05-11T16:26:14.407Z,6.07
2019-05-11T16:28:44.995Z,4.57
2019-05-11T16:31:17.610Z,8.37
2019-05-11T16:33:48.361Z,7.00
2019-05-11T16:36:19.015Z,5.43
2019-05-11T16:38:49.781Z,6.97
2019-05-11T16:41:21.077Z,4.37
2019-05-11T16:43:52.087Z,6.77
2019-05-11T16:46:22.750Z,5.07
2019-05-11T16:48:53.269Z,5.50
2019-05-11T16:51:23.763Z,3.73
2019-05-11T16:53:54.231Z,5.40
2019-05-11T16:56:24.391Z,5.90
2019-05-11T16:58:55.129Z,5.73
2019-05-11T17:01:25.803Z,5.23
2019-05-11T17:03:57.820Z,5.10
2019-05-11T17:06:28.594Z,6.50
2019-05-11T17:08:59.829Z,4.07
2019-05-11T17:11:31.504Z,7.53
2019-05-11T17:14:01.823Z,7.53
2019-05-11T17:16:32.062Z,7.67
2019-05-11T17:19:02.593Z,4.13
2019-05-11T17:21:32.756Z,5.20
2019-05-11T17:24:03.316Z,7.40
2019-05-11T17:26:33.909Z,6.77
2019-05-11T17:29:04.125Z,13.37
2019-05-11T17:31:34.390Z,10.47
2019-05-11T17:34:04.785Z,26.67
2019-05-11T17:36:35.118Z,24.43
2019-05-11T17:39:07.853Z,15.00
2019-05-11T17:41:39.117Z,8.97
2019-05-11T17:44:09.603Z,7.53
2019-05-11T17:46:40.219Z,6.90
2019-05-11T17:49:11.013Z,8.53
2019-05-11T17:51:42.367Z,6.77
2019-05-11T17:54:12.663Z,5.30
2019-05-11T17:56:42.970Z,7.77
2019-05-11T17:59:13.853Z,9.07
2019-05-11T18:01:44.144Z,7.70
2019-05-11T18:04:14.377Z,10.47
2019-05-11T18:06:44.897Z,10.80
2019-05-11T18:09:15.188Z,11.17
2019-05-11T18:11:45.375Z,8.10
2019-05-11T18:14:15.957Z,7.43
2019-05-11T18:16:48.124Z,6.27
2019-05-11T18:19:19.101Z,6.10
2019-05-11T18:21:49.509Z,5.83
2019-05-11T18:24:19.766Z,3.10
2019-05-11T18:26:49.955Z,3.53
2019-05-11T18:29:20.307Z,6.50
2019-05-11T18:31:50.557Z,6.47
2019-05-11T18:34:20.773Z,6.47
2019-05-11T18:36:50.969Z,8.07
2019-05-11T18:39:21.157Z,4.90
2019-05-11T18:41:51.414Z,6.43
2019-05-11T18:44:21.823Z,7.70
2019-05-11T18:46:51.990Z,5.10
2019-05-11T18:49:22.281Z,4.80
2019-05-11T18:51:53.157Z,6.00
2019-05-11T18:54:24.730Z,5.27
2019-05-11T18:56:54.953Z,3.50
2019-05-11T18:59:25.289Z,5.30
2019-05-11T19:01:58.486Z,5.37
2019-05-11T19:04:28.727Z,4.20
2019-05-11T19:07:11.976Z,7.77
2019-05-11T19:09:31.482Z,6.23
2019-05-11T19:12:01.763Z,4.93
2019-05-11T19:14:32.065Z,7.03
2019-05-11T19:17:02.270Z,6.80
2019-05-11T19:19:32.762Z,7.90
2019-05-11T19:22:03.268Z,6.47
2019-05-11T19:24:33.497Z,3.80
2019-05-11T19:27:04.406Z,5.53
2019-05-11T19:29:37.821Z,5.27
2019-05-11T19:32:10.857Z,6.57
2019-05-11T19:34:43.433Z,8.90
2019-05-11T19:37:15.237Z,7.23
2019-05-11T19:39:48.416Z,4.33
2019-05-11T19:42:17.894Z,6.57
2019-05-11T19:44:49.838Z,6.63
2019-05-11T19:47:20.078Z,7.33
2019-05-11T19:49:58.236Z,5.63
2019-05-11T19:52:28.313Z,3.63
2019-05-11T19:54:58.582Z,5.40
2019-05-11T19:57:28.706Z,6.33
2019-05-11T19:59:58.936Z,4.87
2019-05-11T20:02:29.098Z,5.33
2019-05-11T20:04:59.342Z,10.97
2019-05-11T20:07:32.058Z,9.20
2019-05-11T20:10:01.426Z,4.77
2019-05-11T20:12:31.624Z,3.70
2019-05-11T20:15:01.965Z,4.40
2019-05-11T20:17:32.212Z,3.03
2019-05-11T20:20:02.426Z,3.60
2019-05-11T20:22:34.020Z,6.57
2019-05-11T20:25:05.113Z,5.40
2019-05-11T20:27:35.281Z,6.00
2019-05-11T20:30:05.857Z,6.17
2019-05-11T20:32:38.682Z,5.27
2019-05-11T20:35:08.573Z,6.90
2019-05-11T20:37:39.510Z,16.80
2019-05-11T20:40:10.059Z,8.37
2019-05-11T20:42:40.372Z,7.97
2019-05-11T20:45:11.283Z,7.10
2019-05-11T20:47:41.537Z,5.90
2019-05-11T20:50:11.856Z,6.60
2019-05-11T20:52:43.323Z,6.27
2019-05-11T20:55:14.230Z,6.63
2019-05-11T20:57:44.475Z,8.07
2019-05-11T21:00:15.099Z,6.53
2019-05-11T21:02:49.926Z,9.30
2019-05-11T21:05:20.583Z,8.13
2019-05-11T21:07:50.996Z,8.40
2019-05-11T21:10:21.184Z,8.47
2019-05-11T21:12:51.255Z,3.73
2019-05-11T21:15:21.593Z,3.00
2019-05-11T21:17:52.380Z,7.40
2019-05-11T21:20:28.696Z,3.47
2019-05-11T21:22:58.772Z,7.43
2019-05-11T21:25:29.308Z,7.30
2019-05-11T21:27:59.943Z,4.27
2019-05-11T21:30:30.530Z,7.67
2019-05-11T21:33:03.686Z,6.10
2019-05-11T21:35:34.220Z,5.93
2019-05-11T21:38:05.922Z,4.47
2019-05-11T21:40:38.253Z,4.40
2019-05-11T21:43:08.888Z,5.10
2019-05-11T21:45:40.732Z,9.67
2019-05-11T21:48:11.100Z,3.67
2019-05-11T21:50:43.927Z,7.93
2019-05-11T21:53:19.199Z,4.37
2019-05-11T21:55:49.485Z,4.17
2019-05-11T21:58:24.537Z,5.37
2019-05-11T22:00:55.119Z,5.60
2019-05-11T22:03:28.083Z,6.67
2019-05-11T22:05:58.493Z,5.83
2019-05-11T22:08:28.688Z,6.63
2019-05-11T22:11:00.031Z,5.13
2019-05-11T22:13:30.408Z,7.80
2019-05-11T22:16:00.869Z,5.93
2019-05-11T22:18:31.528Z,5.70
2019-05-11T22:21:02.236Z,7.50
2019-05-11T22:23:32.389Z,4.77
2019-05-11T22:26:02.654Z,7.53
2019-05-11T22:28:33.275Z,6.33
2019-05-11T22:31:03.487Z,4.67
2019-05-11T22:33:33.685Z,6.63
2019-05-11T22:36:05.422Z,4.67
2019-05-11T22:38:38.614Z,4.27
2019-05-11T22:41:09.084Z,5.60
2019-05-11T22:43:39.437Z,6.83
2019-05-11T22:46:09.695Z,5.83
2019-05-11T22:48:39.865Z,7.33
2019-05-11T22:51:10.085Z,8.70
2019-05-11T22:53:47.035Z,6.67
2019-05-11T22:56:12.222Z,5.23
2019-05-11T22:58:42.388Z,4.57
2019-05-11T23:01:12.685Z,5.43
2019-05-11T23:03:42.888Z,4.53
2019-05-11T23:06:13.073Z,6.00
2019-05-11T23:08:43.249Z,4.33
2019-05-11T23:11:13.625Z,5.10
2019-05-11T23:13:43.795Z,4.27
2019-05-11T23:16:14.013Z,5.40
2019-05-11T23:18:44.251Z,7.47
2019-05-11T23:21:14.753Z,3.63
2019-05-11T23:23:45.262Z,6.07
2019-05-11T23:26:17.670Z,4.37
2019-05-11T23:28:48.709Z,3.57
2019-05-11T23:31:19.838Z,8.33
2019-05-11T23:33:50.047Z,7.37
2019-05-11T23:36:20.559Z,4.97
2019-05-11T23:38:50.629Z,3.83
2019-05-11T23:41:24.611Z,5.83
2019-05-11T23:43:53.073Z,4.40
2019-05-11T23:46:23.337Z,4.67
2019-05-11T23:48:53.476Z,3.87
2019-05-11T23:51:23.672Z,7.20
2019-05-11T23:53:53.809Z,4.67
2019-05-11T23:56:24.815Z,5.73
2019-05-11T23:58:55.008Z,3.97
